sensor_id;sensor_type;location;lat;lon;timestamp;pressure;altitude;pressure_sealevel;temperature;humidity
10167;BME280;62970;53.130;8.244;2023-04-01T00:00:38;99348.72;;;9.58;69.64
10167;BME280;62970;53.130;8.244;2023-04-01T00:03:07;99346.97;;;9.59;69.66
10167;BME280;62970;53.130;8.244;2023-04-01T00:05:36;99349.56;;;9.59;69.95
10167;BME280;62970;53.130;8.244;2023-04-01T00:08:05;99351.41;;;9.56;69.83
10167;BME280;62970;53.130;8.244;2023-04-01T00:10:34;99354.84;;;9.57;69.68
10167;BME280;62970;53.130;8.244;2023-04-01T00:13:04;99359.22;;;9.56;69.55
10167;BME280;62970;53.130;8.244;2023-04-01T00:15:36;99348.00;;;9.54;69.59
10167;BME280;62970;53.130;8.244;2023-04-01T00:18:06;99349.78;;;9.54;69.55
10167;BME280;62970;53.130;8.244;2023-04-01T00:20:35;99347.16;;;9.54;69.83
10167;BME280;62970;53.130;8.244;2023-04-01T00:23:05;99346.38;;;9.52;69.73
10167;BME280;62970;53.130;8.244;2023-04-01T00:25:34;99343.84;;;9.50;70.22
10167;BME280;62970;53.130;8.244;2023-04-01T00:28:03;99348.22;;;9.50;70.42
10167;BME280;62970;53.130;8.244;2023-04-01T00:30:35;99351.72;;;9.49;70.32
10167;BME280;62970;53.130;8.244;2023-04-01T00:33:04;99350.81;;;9.50;70.39
10167;BME280;62970;53.130;8.244;2023-04-01T00:35:33;99352.50;;;9.51;70.38
10167;BME280;62970;53.130;8.244;2023-04-01T00:38:03;99343.84;;;9.50;70.53
10167;BME280;62970;53.130;8.244;2023-04-01T00:40:35;99348.22;;;9.50;70.17
10167;BME280;62970;53.130;8.244;2023-04-01T00:43:12;99349.06;;;9.50;70.35
10167;BME280;62970;53.130;8.244;2023-04-01T00:45:50;99344.69;;;9.51;70.16
10167;BME280;62970;53.130;8.244;2023-04-01T00:48:26;99349.00;;;9.52;70.30
10167;BME280;62970;53.130;8.244;2023-04-01T00:51:02;99350.75;;;9.51;70.29
10167;BME280;62970;53.130;8.244;2023-04-01T05:48:18;99502.81;;;8.74;69.97
10167;BME280;62970;53.130;8.244;2023-04-01T05:50:48;99503.59;;;8.78;70.12
10167;BME280;62970;53.130;8.244;2023-04-01T05:53:17;99499.97;;;8.82;70.08
10167;BME280;62970;53.130;8.244;2023-04-01T05:55:46;99499.81;;;8.86;70.43
10167;BME280;62970;53.130;8.244;2023-04-01T05:58:16;99506.63;;;8.89;70.68
10167;BME280;62970;53.130;8.244;2023-04-01T06:00:45;99503.88;;;8.94;70.54
10167;BME280;62970;53.130;8.244;2023-04-01T06:03:18;99509.81;;;8.97;70.71
10167;BME280;62970;53.130;8.244;2023-04-01T06:05:47;99513.19;;;8.99;70.38
10167;BME280;62970;53.130;8.244;2023-04-01T06:08:18;99513.19;;;8.99;70.40
10167;BME280;62970;53.130;8.244;2023-04-01T06:11:04;99518.34;;;9.01;70.53
10167;BME280;62970;53.130;8.244;2023-04-01T06:14:10;99519.19;;;9.01;70.28
10167;BME280;62970;53.130;8.244;2023-04-01T06:16:58;99520.88;;;9.02;70.76
10167;BME280;62970;53.130;8.244;2023-04-01T06:19:44;99526.88;;;9.04;70.60
10167;BME280;62970;53.130;8.244;2023-04-01T06:22:52;99535.34;;;9.09;70.75
10167;BME280;62970;53.130;8.244;2023-04-01T06:25:42;99527.38;;;9.14;70.94
10167;BME280;62970;53.130;8.244;2023-04-01T06:28:57;99532.53;;;9.15;70.87
10167;BME280;62970;53.130;8.244;2023-04-01T06:31:51;99541.13;;;9.17;70.96
10167;BME280;62970;53.130;8.244;2023-04-01T06:34:53;99541.91;;;9.19;70.77
10167;BME280;62970;53.130;8.244;2023-04-01T06:40:57;99551.31;;;9.23;70.46
10167;BME280;62970;53.130;8.244;2023-04-01T06:43:40;99552.94;;;9.26;70.85
10167;BME280;62970;53.130;8.244;2023-04-01T06:46:20;99551.13;;;9.28;70.51
10167;BME280;62970;53.130;8.244;2023-04-01T06:49:11;99556.09;;;9.34;70.98
10167;BME280;62970;53.130;8.244;2023-04-01T06:51:52;99555.09;;;9.38;71.00
10167;BME280;62970;53.130;8.244;2023-04-01T06:54:31;99562.78;;;9.41;70.69
10167;BME280;62970;53.130;8.244;2023-04-01T06:57:19;99566.22;;;9.42;71.05
10167;BME280;62970;53.130;8.244;2023-04-01T06:59:50;99568.72;;;9.45;70.78
10167;BME280;62970;53.130;8.244;2023-04-01T07:02:28;99566.94;;;9.45;70.74
10167;BME280;62970;53.130;8.244;2023-04-01T07:05:03;99570.47;;;9.44;70.28
10167;BME280;62970;53.130;8.244;2023-04-01T07:07:41;99577.47;;;9.42;70.96
10167;BME280;62970;53.130;8.244;2023-04-01T07:10:16;99580.97;;;9.41;70.79
10167;BME280;62970;53.130;8.244;2023-04-01T07:12:50;99585.28;;;9.42;71.04
10167;BME280;62970;53.130;8.244;2023-04-01T07:15:24;99589.63;;;9.42;70.89
10167;BME280;62970;53.130;8.244;2023-04-01T07:17:59;99589.69;;;9.40;70.68
10167;BME280;62970;53.130;8.244;2023-04-01T07:20:32;99595.75;;;9.41;70.50
10167;BME280;62970;53.130;8.244;2023-04-01T07:23:11;99604.50;;;9.38;71.06
10167;BME280;62970;53.130;8.244;2023-04-01T07:25:47;99602.81;;;9.37;70.82
10167;BME280;62970;53.130;8.244;2023-04-01T07:28:19;99601.97;;;9.37;71.04
10167;BME280;62970;53.130;8.244;2023-04-01T07:31:00;99606.25;;;9.38;71.21
10167;BME280;62970;53.130;8.244;2023-04-01T07:33:39;99610.56;;;9.39;71.11
10167;BME280;62970;53.130;8.244;2023-04-01T07:36:18;99615.78;;;9.39;71.48
10167;BME280;62970;53.130;8.244;2023-04-01T07:39:03;99615.81;;;9.37;71.25
10167;BME280;62970;53.130;8.244;2023-04-01T07:41:48;99615.81;;;9.37;71.18
10167;BME280;62970;53.130;8.244;2023-04-01T07:44:28;99621.88;;;9.38;71.04
10167;BME280;62970;53.130;8.244;2023-04-01T07:47:20;99622.63;;;9.41;71.36
10167;BME280;62970;53.130;8.244;2023-04-01T07:50:02;99625.72;;;9.51;71.70
10167;BME280;62970;53.130;8.244;2023-04-01T07:52:41;99634.09;;;9.59;71.26
10167;BME280;62970;53.130;8.244;2023-04-01T07:55:23;99635.50;;;9.68;71.46
10167;BME280;62970;53.130;8.244;2023-04-01T07:58:01;99636.78;;;9.79;71.81
10167;BME280;62970;53.130;8.244;2023-04-01T08:00:44;99638.19;;;9.88;71.21
10167;BME280;62970;53.130;8.244;2023-04-01T08:03:29;99648.38;;;9.94;71.17
10167;BME280;62970;53.130;8.244;2023-04-01T08:06:09;99646.56;;;9.96;71.02
10167;BME280;62970;53.130;8.244;2023-04-01T08:08:52;99649.28;;;9.93;70.85
10167;BME280;62970;53.130;8.244;2023-04-01T08:11:41;99659.59;;;9.96;71.11
10167;BME280;62970;53.130;8.244;2023-04-01T08:14:21;99654.25;;;9.99;71.11
10167;BME280;62970;53.130;8.244;2023-04-01T08:17:00;99669.69;;;10.05;71.23
10167;BME280;62970;53.130;8.244;2023-04-01T08:19:46;99668.53;;;10.12;71.30
10167;BME280;62970;53.130;8.244;2023-04-01T08:22:26;99671.00;;;10.17;70.97
10167;BME280;62970;53.130;8.244;2023-04-01T08:25:00;99667.47;;;10.18;70.33
10167;BME280;62970;53.130;8.244;2023-04-01T08:27:40;99677.94;;;10.16;70.52
10167;BME280;62970;53.130;8.244;2023-04-01T08:30:19;99677.91;;;10.18;70.52
10167;BME280;62970;53.130;8.244;2023-04-01T08:32:54;99684.81;;;10.19;70.92
10167;BME280;62970;53.130;8.244;2023-04-01T08:35:30;99688.31;;;10.18;70.71
10167;BME280;62970;53.130;8.244;2023-04-01T08:38:09;99690.91;;;10.18;70.95
10167;BME280;62970;53.130;8.244;2023-04-01T08:41:07;99691.78;;;10.18;71.02
10167;BME280;62970;53.130;8.244;2023-04-01T08:44:14;99697.03;;;10.17;70.51
10167;BME280;62970;53.130;8.244;2023-04-01T08:47:01;99703.94;;;10.18;70.63
10167;BME280;62970;53.130;8.244;2023-04-01T08:52:36;99702.06;;;10.22;70.77
10167;BME280;62970;53.130;8.244;2023-04-01T08:55:30;99705.22;;;10.30;71.14
10167;BME280;62970;53.130;8.244;2023-04-01T08:58:54;99703.72;;;10.46;71.28
10167;BME280;62970;53.130;8.244;2023-04-01T09:01:51;99714.91;;;10.70;71.52
10167;BME280;62970;53.130;8.244;2023-04-01T09:04:52;99712.53;;;10.86;71.47
10167;BME280;62970;53.130;8.244;2023-04-01T09:07:40;99706.72;;;10.99;71.26
10167;BME280;62970;53.130;8.244;2023-04-01T09:10:53;99723.03;;;11.04;70.84
10167;BME280;62970;53.130;8.244;2023-04-01T09:14:17;99720.44;;;11.04;70.48
10167;BME280;62970;53.130;8.244;2023-04-01T09:17:42;99726.63;;;11.02;70.66
10167;BME280;62970;53.130;8.244;2023-04-01T09:20:36;99725.66;;;11.04;70.74
10167;BME280;62970;53.130;8.244;2023-04-01T09:23:33;99730.81;;;11.06;70.33
10167;BME280;62970;53.130;8.244;2023-04-01T09:26:37;99736.88;;;11.06;70.44
10167;BME280;62970;53.130;8.244;2023-04-01T09:34:51;99753.56;;;11.02;70.32
10167;BME280;62970;53.130;8.244;2023-04-01T09:37:34;99758.72;;;11.04;70.34
10167;BME280;62970;53.130;8.244;2023-04-01T09:40:17;99756.75;;;11.09;69.82
10167;BME280;62970;53.130;8.244;2023-04-01T09:43:23;99760.75;;;11.18;70.38
10167;BME280;62970;53.130;8.244;2023-04-01T09:46:40;99767.88;;;11.34;69.89
10167;BME280;62970;53.130;8.244;2023-04-01T09:52:24;99775.53;;;11.59;70.15
10167;BME280;62970;53.130;8.244;2023-04-01T09:55:23;99775.84;;;11.72;69.90
10167;BME280;62970;53.130;8.244;2023-04-01T10:02:08;99788.50;;;11.81;69.03
10167;BME280;62970;53.130;8.244;2023-04-01T10:05:32;99790.53;;;11.74;68.84
10167;BME280;62970;53.130;8.244;2023-04-01T10:12:24;99798.63;;;11.48;68.37
10167;BME280;62970;53.130;8.244;2023-04-01T10:15:41;99812.72;;;11.44;68.80
10167;BME280;62970;53.130;8.244;2023-04-01T10:18:42;99825.47;;;11.30;67.71
10167;BME280;62970;53.130;8.244;2023-04-01T10:22:06;99827.56;;;11.00;67.21
10167;BME280;62970;53.130;8.244;2023-04-01T10:28:20;99845.63;;;10.61;67.53
10167;BME280;62970;53.130;8.244;2023-04-01T10:31:30;99847.78;;;10.49;68.25
10167;BME280;62970;53.130;8.244;2023-04-01T10:41:05;99857.25;;;10.29;67.69
10167;BME280;62970;53.130;8.244;2023-04-01T10:44:18;99856.75;;;10.19;68.14
10167;BME280;62970;53.130;8.244;2023-04-01T10:53:37;99876.34;;;10.04;67.87
10167;BME280;62970;53.130;8.244;2023-04-01T10:56:34;99871.31;;;9.98;67.61
10167;BME280;62970;53.130;8.244;2023-04-01T10:59:31;99887.84;;;9.97;67.82
10167;BME280;62970;53.130;8.244;2023-04-01T11:02:44;99888.00;;;9.93;67.48
10167;BME280;62970;53.130;8.244;2023-04-01T11:12:34;99907.41;;;9.84;67.54
10167;BME280;62970;53.130;8.244;2023-04-01T11:15:53;99903.19;;;9.80;67.27
10167;BME280;62970;53.130;8.244;2023-04-01T11:19:24;99915.66;;;9.70;67.63
10167;BME280;62970;53.130;8.244;2023-04-01T11:25:29;99933.53;;;9.54;66.77
10167;BME280;62970;53.130;8.244;2023-04-01T11:31:29;99933.88;;;9.44;67.72
10167;BME280;62970;53.130;8.244;2023-04-01T11:34:20;99953.25;;;9.35;67.59
10167;BME280;62970;53.130;8.244;2023-04-01T11:37:05;99955.25;;;9.27;67.78
10167;BME280;62970;53.130;8.244;2023-04-01T11:39:54;99961.75;;;9.12;68.14
10167;BME280;62970;53.130;8.244;2023-04-01T11:42:37;99963.91;;;8.98;68.61
10167;BME280;62970;53.130;8.244;2023-04-01T11:45:36;99966.97;;;8.83;68.35
10167;BME280;62970;53.130;8.244;2023-04-01T11:48:46;99974.38;;;8.66;68.95
10167;BME280;62970;53.130;8.244;2023-04-01T11:52:01;99986.00;;;8.52;69.95
10167;BME280;62970;53.130;8.244;2023-04-01T11:58:23;100009.94;;;8.31;70.08
10167;BME280;62970;53.130;8.244;2023-04-01T12:01:33;100004.19;;;8.20;70.00
10167;BME280;62970;53.130;8.244;2023-04-01T12:07:50;100017.53;;;8.06;70.23
10167;BME280;62970;53.130;8.244;2023-04-01T12:10:26;100022.81;;;8.02;70.66
10167;BME280;62970;53.130;8.244;2023-04-01T12:13:04;100024.69;;;7.97;70.58
10167;BME280;62970;53.130;8.244;2023-04-01T12:15:59;100033.44;;;7.92;71.35
10167;BME280;62970;53.130;8.244;2023-04-01T12:18:59;100033.56;;;7.88;70.90
10167;BME280;62970;53.130;8.244;2023-04-01T12:21:38;100045.81;;;7.81;71.18
10167;BME280;62970;53.130;8.244;2023-04-01T12:24:49;100046.09;;;7.69;71.64
10167;BME280;62970;53.130;8.244;2023-04-01T12:27:53;100052.28;;;7.63;71.94
10167;BME280;62970;53.130;8.244;2023-04-01T12:31:02;100058.38;;;7.62;71.90
10167;BME280;62970;53.130;8.244;2023-04-01T12:34:02;100057.47;;;7.63;72.29
10167;BME280;62970;53.130;8.244;2023-04-01T12:36:52;100065.28;;;7.62;72.50
10167;BME280;62970;53.130;8.244;2023-04-01T12:39:55;100065.38;;;7.59;72.42
10167;BME280;62970;53.130;8.244;2023-04-01T12:42:44;100066.47;;;7.49;72.04
10167;BME280;62970;53.130;8.244;2023-04-01T12:45:30;100073.50;;;7.44;72.37
10167;BME280;62970;53.130;8.244;2023-04-01T12:51:34;100097.91;;;7.32;72.54
10167;BME280;62970;53.130;8.244;2023-04-01T12:58:29;100104.97;;;7.25;73.14
10167;BME280;62970;53.130;8.244;2023-04-01T13:01:30;100106.69;;;7.25;73.06
10167;BME280;62970;53.130;8.244;2023-04-01T13:08:14;100110.19;;;7.24;73.11
10167;BME280;62970;53.130;8.244;2023-04-01T13:11:18;100123.22;;;7.21;73.08
10167;BME280;62970;53.130;8.244;2023-04-01T13:16:28;100136.88;;;7.29;73.17
10167;BME280;62970;53.130;8.244;2023-04-01T13:19:06;100138.59;;;7.30;73.35
10167;BME280;62970;53.130;8.244;2023-04-01T13:21:51;100140.25;;;7.32;72.99
10167;BME280;62970;53.130;8.244;2023-04-01T13:24:46;100149.78;;;7.32;72.99
10167;BME280;62970;53.130;8.244;2023-04-01T13:27:22;100155.00;;;7.30;73.00
10167;BME280;62970;53.130;8.244;2023-04-01T13:30:10;100164.53;;;7.30;73.16
10167;BME280;62970;53.130;8.244;2023-04-01T13:32:50;100161.97;;;7.28;73.09
10167;BME280;62970;53.130;8.244;2023-04-01T13:35:33;100160.31;;;7.24;72.89
10167;BME280;62970;53.130;8.244;2023-04-01T13:38:43;100170.78;;;7.18;72.75
10167;BME280;62970;53.130;8.244;2023-04-01T13:41:35;100178.59;;;7.15;73.08
10167;BME280;62970;53.130;8.244;2023-04-01T13:44:20;100183.75;;;7.17;73.42
10167;BME280;62970;53.130;8.244;2023-04-01T13:50:34;100191.50;;;7.18;73.51
10167;BME280;62970;53.130;8.244;2023-04-01T13:56:16;100200.28;;;7.11;73.42
10167;BME280;62970;53.130;8.244;2023-04-01T13:59:10;100209.81;;;7.11;73.44
10167;BME280;62970;53.130;8.244;2023-04-01T14:01:54;100209.81;;;7.09;73.35
10167;BME280;62970;53.130;8.244;2023-04-01T14:04:49;100204.72;;;7.05;72.77
10167;BME280;62970;53.130;8.244;2023-04-01T14:07:40;100221.28;;;6.97;72.96
10167;BME280;62970;53.130;8.244;2023-04-01T14:13:14;100234.31;;;6.93;73.12
10167;BME280;62970;53.130;8.244;2023-04-01T14:16:04;100236.94;;;6.91;73.24
10167;BME280;62970;53.130;8.244;2023-04-01T14:19:03;100246.47;;;6.89;73.03
10167;BME280;62970;53.130;8.244;2023-04-01T14:21:57;100242.19;;;6.87;72.85
10167;BME280;62970;53.130;8.244;2023-04-01T14:25:00;100244.81;;;6.85;73.16
10167;BME280;62970;53.130;8.244;2023-04-01T14:27:55;100250.00;;;6.85;73.50
10167;BME280;62970;53.130;8.244;2023-04-01T14:30:56;100262.97;;;6.84;73.43
10167;BME280;62970;53.130;8.244;2023-04-01T14:33:38;100267.34;;;6.80;73.32
10167;BME280;62970;53.130;8.244;2023-04-01T14:36:36;100270.00;;;6.77;73.30
10167;BME280;62970;53.130;8.244;2023-04-01T14:40:16;100272.59;;;6.76;72.99
10167;BME280;62970;53.130;8.244;2023-04-01T14:46:37;100280.44;;;6.71;73.61
10167;BME280;62970;53.130;8.244;2023-04-01T14:49:21;100287.38;;;6.71;73.56
10167;BME280;62970;53.130;8.244;2023-04-01T14:51:52;100285.63;;;6.71;73.53
10167;BME280;62970;53.130;8.244;2023-04-01T14:54:31;100314.97;;;6.73;73.64
10167;BME280;62970;53.130;8.244;2023-04-01T14:57:11;100309.00;;;6.68;73.35
10167;BME280;62970;53.130;8.244;2023-04-01T14:59:48;100309.88;;;6.67;73.23
10167;BME280;62970;53.130;8.244;2023-04-01T15:02:47;100317.69;;;6.64;73.37
10167;BME280;62970;53.130;8.244;2023-04-01T15:05:32;100322.06;;;6.60;73.37
10167;BME280;62970;53.130;8.244;2023-04-01T15:08:17;100326.41;;;6.60;73.10
10167;BME280;62970;53.130;8.244;2023-04-01T15:11:23;100330.72;;;6.59;72.90
10167;BME280;62970;53.130;8.244;2023-04-01T15:14:27;100329.88;;;6.57;73.18
10167;BME280;62970;53.130;8.244;2023-04-01T15:17:23;100336.81;;;6.55;72.98
10167;BME280;62970;53.130;8.244;2023-04-01T15:20:18;100360.13;;;6.55;73.39
10167;BME280;62970;53.130;8.244;2023-04-01T15:23:02;100357.63;;;6.49;72.67
10167;BME280;62970;53.130;8.244;2023-04-01T15:26:04;100366.34;;;6.44;72.91
10167;BME280;62970;53.130;8.244;2023-04-01T15:28:42;100362.94;;;6.39;72.74
10167;BME280;62970;53.130;8.244;2023-04-01T15:31:25;100375.94;;;6.35;72.54
10167;BME280;62970;53.130;8.244;2023-04-01T15:34:13;100372.53;;;6.30;72.81
10167;BME280;62970;53.130;8.244;2023-04-01T15:37:04;100389.84;;;6.28;73.04
10167;BME280;62970;53.130;8.244;2023-04-01T15:39:58;100404.59;;;6.22;72.37
10167;BME280;62970;53.130;8.244;2023-04-01T15:42:52;100399.50;;;6.14;72.17
10167;BME280;62970;53.130;8.244;2023-04-01T15:45:37;100415.13;;;6.07;72.42
10167;BME280;62970;53.130;8.244;2023-04-01T15:48:34;100406.56;;;5.98;72.55
10167;BME280;62970;53.130;8.244;2023-04-01T15:51:22;100423.84;;;5.95;72.84
10167;BME280;62970;53.130;8.244;2023-04-01T15:54:14;100427.38;;;5.89;72.33
10167;BME280;62970;53.130;8.244;2023-04-01T15:57:04;100431.75;;;5.81;72.15
10167;BME280;62970;53.130;8.244;2023-04-01T16:03:22;100444.78;;;5.70;72.45
10167;BME280;62970;53.130;8.244;2023-04-01T16:06:17;100449.97;;;5.72;72.81
10167;BME280;62970;53.130;8.244;2023-04-01T16:09:07;100462.91;;;5.70;72.89
10167;BME280;62970;53.130;8.244;2023-04-01T16:11:48;100465.53;;;5.67;72.54
10167;BME280;62970;53.130;8.244;2023-04-01T16:14:36;100476.75;;;5.65;72.77
10167;BME280;62970;53.130;8.244;2023-04-01T16:20:20;100493.19;;;5.59;72.35
10167;BME280;62970;53.130;8.244;2023-04-01T16:22:57;100490.59;;;5.56;72.91
10167;BME280;62970;53.130;8.244;2023-04-01T16:25:39;100485.44;;;5.55;72.40
10167;BME280;62970;53.130;8.244;2023-04-01T16:28:21;100497.53;;;5.53;72.50
10167;BME280;62970;53.130;8.244;2023-04-01T16:30:59;100503.59;;;5.49;72.79
10167;BME280;62970;53.130;8.244;2023-04-01T16:33:40;100509.66;;;5.46;72.76
10167;BME280;62970;53.130;8.244;2023-04-01T16:36:26;100517.44;;;5.43;72.41
10167;BME280;62970;53.130;8.244;2023-04-01T16:39:29;100523.47;;;5.41;72.76
10167;BME280;62970;53.130;8.244;2023-04-01T16:42:26;100529.53;;;5.38;72.23
10167;BME280;62970;53.130;8.244;2023-04-01T16:45:15;100539.03;;;5.36;72.26
10167;BME280;62970;53.130;8.244;2023-04-01T16:47:49;100544.19;;;5.34;72.69
10167;BME280;62970;53.130;8.244;2023-04-01T16:50:23;100543.34;;;5.31;72.58
10167;BME280;62970;53.130;8.244;2023-04-01T16:53:02;100552.81;;;5.30;72.36
10167;BME280;62970;53.130;8.244;2023-04-01T16:55:48;100557.13;;;5.27;72.35
10167;BME280;62970;53.130;8.244;2023-04-01T16:58:25;100574.38;;;5.25;72.71
10167;BME280;62970;53.130;8.244;2023-04-01T17:01:04;100585.59;;;5.22;72.26
10167;BME280;62970;53.130;8.244;2023-04-01T17:03:39;100587.31;;;5.23;72.08
10167;BME280;62970;53.130;8.244;2023-04-01T17:06:28;100578.72;;;5.21;72.37
10167;BME280;62970;53.130;8.244;2023-04-01T17:09:20;100592.50;;;5.23;72.45
10167;BME280;62970;53.130;8.244;2023-04-01T17:12:00;100602.84;;;5.23;72.58
10167;BME280;62970;53.130;8.244;2023-04-01T17:14:40;100608.88;;;5.24;72.28
10167;BME280;62970;53.130;8.244;2023-04-01T17:17:37;100611.44;;;5.24;72.02
10167;BME280;62970;53.130;8.244;2023-04-01T17:20:33;100621.78;;;5.22;72.24
10167;BME280;62970;53.130;8.244;2023-04-01T17:23:26;100626.13;;;5.20;72.39
10167;BME280;62970;53.130;8.244;2023-04-01T17:26:19;100633.00;;;5.18;72.26
10167;BME280;62970;53.130;8.244;2023-04-01T17:28:59;100639.91;;;5.16;71.84
10167;BME280;62970;53.130;8.244;2023-04-01T17:31:53;100639.94;;;5.13;71.83
10167;BME280;62970;53.130;8.244;2023-04-01T17:34:48;100654.59;;;5.11;71.75
10167;BME280;62970;53.130;8.244;2023-04-01T17:37:36;100656.28;;;5.12;71.88
10167;BME280;62970;53.130;8.244;2023-04-01T17:40:24;100668.34;;;5.13;72.27
10167;BME280;62970;53.130;8.244;2023-04-01T17:43:04;100683.88;;;5.15;71.80
10167;BME280;62970;53.130;8.244;2023-04-01T17:45:45;100672.66;;;5.13;72.22
10167;BME280;62970;53.130;8.244;2023-04-01T17:48:29;100683.88;;;5.12;71.68
10167;BME280;62970;53.130;8.244;2023-04-01T17:51:14;100696.81;;;5.10;72.03
10167;BME280;62970;53.130;8.244;2023-04-01T17:53:57;100710.59;;;5.07;71.53
10167;BME280;62970;53.130;8.244;2023-04-01T17:56:43;100708.00;;;5.03;71.81
10167;BME280;62970;53.130;8.244;2023-04-01T17:59:26;100708.88;;;4.99;71.61
10167;BME280;62970;53.130;8.244;2023-04-01T18:02:16;100720.09;;;4.96;71.65
10167;BME280;62970;53.130;8.244;2023-04-01T18:05:38;100728.72;;;4.91;71.24
10167;BME280;62970;53.130;8.244;2023-04-01T18:08:32;100730.44;;;4.87;71.30
10167;BME280;62970;53.130;8.244;2023-04-01T18:11:17;100742.50;;;4.82;71.62
10167;BME280;62970;53.130;8.244;2023-04-01T18:14:18;100755.41;;;4.81;71.78
10167;BME280;62970;53.130;8.244;2023-04-01T18:17:06;100756.25;;;4.78;71.82
10167;BME280;62970;53.130;8.244;2023-04-01T18:19:48;100766.56;;;4.80;71.94
10167;BME280;62970;53.130;8.244;2023-04-01T18:22:29;100773.47;;;4.79;71.86
10167;BME280;62970;53.130;8.244;2023-04-01T18:25:17;100772.59;;;4.74;71.52
10167;BME280;62970;53.130;8.244;2023-04-01T18:27:52;100794.13;;;4.68;71.14
10167;BME280;62970;53.130;8.244;2023-04-01T18:30:29;100797.56;;;4.61;71.45
10167;BME280;62970;53.130;8.244;2023-04-01T18:33:03;100788.94;;;4.56;70.89
10167;BME280;62970;53.130;8.244;2023-04-01T18:35:47;100809.59;;;4.53;71.45
10167;BME280;62970;53.130;8.244;2023-04-01T18:38:28;100811.31;;;4.53;71.08
10167;BME280;62970;53.130;8.244;2023-04-01T18:41:15;100823.38;;;4.52;71.48
10167;BME280;62970;53.130;8.244;2023-04-01T18:43:59;100814.78;;;4.52;71.19
10167;BME280;62970;53.130;8.244;2023-04-01T18:46:39;100821.66;;;4.53;71.69
10167;BME280;62970;53.130;8.244;2023-04-01T18:49:21;100833.72;;;4.54;71.61
10167;BME280;62970;53.130;8.244;2023-04-01T18:51:55;100838.88;;;4.54;71.42
10167;BME280;62970;53.130;8.244;2023-04-01T18:54:32;100844.03;;;4.55;71.32
10167;BME280;62970;53.130;8.244;2023-04-01T18:57:07;100854.38;;;4.57;71.15
10167;BME280;62970;53.130;8.244;2023-04-01T18:59:42;100857.81;;;4.59;71.31
10167;BME280;62970;53.130;8.244;2023-04-01T19:02:25;100861.28;;;4.58;71.61
10167;BME280;62970;53.130;8.244;2023-04-01T19:05:04;100869.03;;;4.61;71.51
10167;BME280;62970;53.130;8.244;2023-04-01T19:07:44;100869.03;;;4.62;71.23
10167;BME280;62970;53.130;8.244;2023-04-01T19:10:26;100881.09;;;4.63;71.21
10167;BME280;62970;53.130;8.244;2023-04-01T19:13:13;100883.66;;;4.65;71.21
10167;BME280;62970;53.130;8.244;2023-04-01T19:15:49;100895.72;;;4.64;70.98
10167;BME280;62970;53.130;8.244;2023-04-01T19:19:02;100898.28;;;4.57;70.64
10167;BME280;62970;53.130;8.244;2023-04-01T19:21:39;100912.94;;;4.58;70.88
10167;BME280;62970;53.130;8.244;2023-04-01T19:27:31;100921.53;;;4.55;70.98
10167;BME280;62970;53.130;8.244;2023-04-01T19:30:27;100921.53;;;4.55;70.79
10167;BME280;62970;53.130;8.244;2023-04-01T19:33:15;100934.44;;;4.54;70.70
10167;BME280;62970;53.130;8.244;2023-04-01T19:35:58;100936.16;;;4.55;70.88
10167;BME280;62970;53.130;8.244;2023-04-01T19:38:39;100944.78;;;4.55;70.66
10167;BME280;62970;53.130;8.244;2023-04-01T19:41:27;100951.66;;;4.55;70.72
10167;BME280;62970;53.130;8.244;2023-04-01T19:44:20;100950.78;;;4.53;70.41
10167;BME280;62970;53.130;8.244;2023-04-01T19:46:56;100963.69;;;4.53;70.38
10167;BME280;62970;53.130;8.244;2023-04-01T19:49:39;100959.38;;;4.50;70.31
10167;BME280;62970;53.130;8.244;2023-04-01T19:52:14;100982.63;;;4.47;70.14
10167;BME280;62970;53.130;8.244;2023-04-01T19:54:56;100980.88;;;4.43;70.10
10167;BME280;62970;53.130;8.244;2023-04-01T19:57:39;100991.19;;;4.38;70.26
10167;BME280;62970;53.130;8.244;2023-04-01T20:00:22;101010.09;;;4.36;70.16
10167;BME280;62970;53.130;8.244;2023-04-01T20:03:03;101008.34;;;4.32;69.72
10167;BME280;62970;53.130;8.244;2023-04-01T20:05:59;101021.22;;;4.27;70.02
10167;BME280;62970;53.130;8.244;2023-04-01T20:08:38;101018.66;;;4.26;69.94
10167;BME280;62970;53.130;8.244;2023-04-01T20:11:25;101022.91;;;4.21;69.07
10167;BME280;62970;53.130;8.244;2023-04-01T20:14:08;101030.66;;;4.19;69.61
10167;BME280;62970;53.130;8.244;2023-04-01T20:17:11;101036.66;;;4.18;69.67
10167;BME280;62970;53.130;8.244;2023-04-01T20:19:54;101045.25;;;4.16;69.61
10167;BME280;62970;53.130;8.244;2023-04-01T20:22:35;101051.28;;;4.16;69.91
10167;BME280;62970;53.130;8.244;2023-04-01T20:25:13;101052.13;;;4.14;69.68
10167;BME280;62970;53.130;8.244;2023-04-01T20:27:49;101059.88;;;4.14;69.89
10167;BME280;62970;53.130;8.244;2023-04-01T20:30:43;101065.88;;;4.11;69.39
10167;BME280;62970;53.130;8.244;2023-04-01T20:36:41;101072.75;;;4.10;69.40
10167;BME280;62970;53.130;8.244;2023-04-01T20:45:48;101090.81;;;4.09;69.51
10167;BME280;62970;53.130;8.244;2023-04-01T20:49:06;101098.53;;;4.09;69.12
10167;BME280;62970;53.130;8.244;2023-04-01T20:51:47;101101.16;;;4.12;69.20
10167;BME280;62970;53.130;8.244;2023-04-01T20:54:44;101103.75;;;4.14;69.21
10167;BME280;62970;53.130;8.244;2023-04-01T20:57:21;101108.03;;;4.13;69.45
10167;BME280;62970;53.130;8.244;2023-04-01T21:00:19;101114.91;;;4.11;68.94
10167;BME280;62970;53.130;8.244;2023-04-01T21:03:12;101118.38;;;4.13;69.42
10167;BME280;62970;53.130;8.244;2023-04-01T21:09:10;101132.09;;;4.09;68.18
10167;BME280;62970;53.130;8.244;2023-04-01T21:11:50;101132.94;;;4.08;68.76
10167;BME280;62970;53.130;8.244;2023-04-01T21:14:56;101135.50;;;4.06;68.50
10167;BME280;62970;53.130;8.244;2023-04-01T21:17:42;101141.50;;;4.04;68.28
10167;BME280;62970;53.130;8.244;2023-04-01T21:20:53;101156.97;;;3.99;68.24
10167;BME280;62970;53.130;8.244;2023-04-01T21:23:52;101163.81;;;3.96;68.76
10167;BME280;62970;53.130;8.244;2023-04-01T21:26:46;101159.44;;;3.90;67.85
10167;BME280;62970;53.130;8.244;2023-04-01T21:29:44;101174.06;;;3.88;68.22
10167;BME280;62970;53.130;8.244;2023-04-01T21:32:43;101171.41;;;3.82;66.34